createdAt,value
2023-05-09T00:02:08.207Z,69.74
2023-05-09T00:04:35.558Z,70.73
2023-05-09T00:07:02.254Z,71.60
2023-05-09T00:09:28.839Z,70.71
2023-05-09T00:11:55.410Z,70.42
2023-05-09T00:14:22.016Z,71.96
2023-05-09T00:16:49.519Z,72.31
2023-05-09T00:19:16.209Z,72.88
2023-05-09T00:21:43.087Z,72.85
2023-05-09T00:24:09.645Z,72.35
2023-05-09T00:26:36.161Z,72.34
2023-05-09T00:29:02.748Z,72.51
2023-05-09T00:31:29.357Z,74.72
2023-05-09T00:33:55.963Z,74.77
2023-05-09T00:36:22.501Z,74.45
2023-05-09T00:38:49.195Z,75.07
2023-05-09T00:41:15.778Z,76.09
2023-05-09T00:43:42.316Z,75.79
2023-05-09T00:46:08.996Z,77.19
2023-05-09T00:48:36.011Z,77.97
2023-05-09T00:51:03.360Z,77.42
2023-05-09T00:53:30.021Z,78.08
2023-05-09T00:55:57.899Z,78.58
2023-05-09T00:58:24.535Z,80.54
2023-05-09T01:00:51.525Z,79.95
2023-05-09T01:03:18.508Z,80.89
2023-05-09T01:05:48.219Z,80.88
2023-05-09T01:08:31.504Z,80.94
2023-05-09T01:11:13.363Z,81.16
2023-05-09T01:13:58.663Z,81.84
2023-05-09T01:16:38.637Z,82.53
2023-05-09T01:19:37.762Z,82.57
2023-05-09T01:22:09.040Z,83.10
2023-05-09T01:25:01.799Z,83.92
2023-05-09T01:28:06.124Z,85.12
2023-05-09T01:30:36.020Z,86.24
2023-05-09T01:33:07.381Z,86.08
2023-05-09T01:35:37.640Z,87.35
2023-05-09T01:38:12.940Z,87.33
2023-05-09T01:40:42.268Z,87.28
2023-05-09T01:43:11.607Z,88.22
2023-05-09T01:45:39.588Z,87.82
2023-05-09T01:48:08.959Z,88.52
2023-05-09T01:50:36.255Z,89.20
2023-05-09T01:53:05.328Z,88.35
2023-05-09T01:55:34.386Z,89.37
2023-05-09T01:58:03.143Z,89.12
2023-05-09T02:00:32.190Z,89.68
2023-05-09T02:02:59.079Z,89.70
2023-05-09T02:05:28.375Z,89.74
2023-05-09T02:08:01.212Z,91.43
2023-05-09T02:10:28.890Z,91.58
2023-05-09T02:12:56.927Z,91.37
2023-05-09T02:15:23.862Z,91.58
2023-05-09T02:17:50.519Z,92.06
2023-05-09T02:20:17.423Z,92.41
2023-05-09T02:22:44.649Z,92.56
2023-05-09T02:25:15.494Z,93.21
2023-05-09T02:27:45.462Z,94.20
2023-05-09T02:30:23.449Z,94.80
2023-05-09T02:32:53.794Z,95.50
2023-05-09T02:35:22.194Z,94.96
2023-05-09T02:37:49.076Z,95.32
2023-05-09T02:40:15.721Z,96.28
2023-05-09T02:42:42.276Z,98.39
2023-05-09T02:45:10.695Z,100.00
2023-05-09T02:47:38.156Z,100.00
2023-05-09T02:50:06.061Z,100.00
2023-05-09T02:52:32.668Z,100.00
2023-05-09T02:54:59.252Z,100.00
2023-05-09T02:57:26.052Z,100.00
2023-05-09T02:59:52.620Z,100.00
2023-05-09T03:02:19.311Z,100.00
2023-05-09T03:04:46.184Z,100.00
2023-05-09T03:07:12.753Z,100.00
2023-05-09T03:09:41.084Z,100.00
2023-05-09T03:12:08.181Z,100.00
2023-05-09T03:14:34.737Z,100.00
2023-05-09T03:17:01.286Z,100.00
2023-05-09T03:19:27.845Z,100.00
2023-05-09T03:21:54.563Z,100.00
2023-05-09T03:24:21.776Z,100.00
2023-05-09T03:26:48.326Z,100.00
2023-05-09T03:29:14.860Z,100.00
2023-05-09T03:31:41.505Z,100.00
2023-05-09T03:34:13.201Z,100.00
2023-05-09T03:36:39.787Z,100.00
2023-05-09T03:39:06.402Z,100.00
2023-05-09T03:41:32.988Z,100.00
2023-05-09T03:43:59.548Z,100.00
2023-05-09T03:46:26.131Z,100.00
2023-05-09T03:48:52.717Z,100.00
2023-05-09T03:51:21.462Z,100.00
2023-05-09T03:53:48.115Z,100.00
2023-05-09T03:56:14.786Z,100.00
2023-05-09T03:58:41.377Z,100.00
2023-05-09T04:01:08.038Z,100.00
2023-05-09T04:03:34.697Z,100.00
2023-05-09T04:06:01.541Z,100.00
2023-05-09T04:08:28.391Z,100.00
2023-05-09T04:10:54.985Z,100.00
2023-05-09T04:13:21.624Z,100.00
2023-05-09T04:15:48.214Z,100.00
2023-05-09T04:18:15.060Z,100.00
2023-05-09T04:20:41.609Z,100.00
2023-05-09T04:23:08.469Z,100.00
2023-05-09T04:25:35.638Z,100.00
2023-05-09T04:28:02.536Z,100.00
2023-05-09T04:30:29.348Z,100.00
2023-05-09T04:32:56.237Z,100.00
2023-05-09T04:35:23.100Z,100.00
2023-05-09T04:37:50.086Z,100.00
2023-05-09T04:40:17.053Z,100.00
2023-05-09T04:42:43.693Z,100.00
2023-05-09T04:45:11.942Z,100.00
2023-05-09T04:47:38.854Z,100.00
2023-05-09T04:50:06.060Z,100.00
2023-05-09T04:52:32.623Z,100.00
2023-05-09T04:54:59.258Z,100.00
2023-05-09T04:57:26.002Z,100.00
2023-05-09T04:59:53.150Z,100.00
2023-05-09T05:02:21.376Z,100.00
2023-05-09T05:04:48.268Z,100.00
2023-05-09T05:07:14.898Z,100.00
2023-05-09T05:09:41.492Z,100.00
2023-05-09T05:12:09.741Z,100.00
2023-05-09T05:14:36.652Z,100.00
2023-05-09T05:17:03.537Z,100.00
2023-05-09T05:19:30.223Z,100.00
2023-05-09T05:21:56.801Z,100.00
2023-05-09T05:24:23.368Z,100.00
2023-05-09T05:26:49.947Z,100.00
2023-05-09T05:29:17.768Z,100.00
2023-05-09T05:31:44.341Z,100.00
2023-05-09T05:34:11.020Z,100.00
2023-05-09T05:36:37.625Z,100.00
2023-05-09T05:39:04.613Z,100.00
2023-05-09T05:41:31.820Z,100.00
2023-05-09T05:43:58.448Z,100.00
2023-05-09T05:46:25.139Z,100.00
2023-05-09T05:48:51.776Z,100.00
2023-05-09T05:51:18.408Z,100.00
2023-05-09T05:53:45.000Z,100.00
2023-05-09T05:56:11.533Z,100.00
2023-05-09T05:58:38.485Z,100.00
2023-05-09T06:01:05.245Z,100.00
2023-05-09T06:03:32.357Z,100.00
2023-05-09T06:05:59.653Z,100.00
2023-05-09T06:08:26.359Z,100.00
2023-05-09T06:10:53.072Z,100.00
2023-05-09T06:13:19.710Z,100.00
2023-05-09T06:15:46.455Z,100.00
2023-05-09T06:18:13.406Z,100.00
2023-05-09T06:20:40.090Z,100.00
2023-05-09T06:23:07.159Z,100.00
2023-05-09T06:25:33.874Z,100.00
2023-05-09T06:28:00.727Z,100.00
2023-05-09T06:30:27.407Z,100.00
2023-05-09T06:32:55.143Z,100.00
2023-05-09T06:35:22.153Z,100.00
2023-05-09T06:37:49.276Z,100.00
2023-05-09T06:40:16.522Z,100.00
2023-05-09T06:42:43.131Z,100.00
2023-05-09T06:45:10.184Z,100.00
2023-05-09T06:47:36.794Z,100.00
2023-05-09T06:50:03.567Z,100.00
2023-05-09T06:52:30.440Z,100.00
2023-05-09T06:54:56.992Z,100.00
2023-05-09T06:57:23.853Z,100.00
2023-05-09T06:59:50.853Z,100.00
2023-05-09T07:02:17.431Z,100.00
2023-05-09T07:04:44.118Z,100.00
2023-05-09T07:07:10.671Z,98.58
2023-05-09T07:09:37.295Z,99.72
2023-05-09T07:12:04.244Z,100.00
2023-05-09T07:14:30.890Z,99.10
2023-05-09T07:17:09.883Z,96.81
2023-05-09T07:19:41.425Z,98.71
2023-05-09T07:22:08.153Z,96.40
2023-05-09T07:24:34.759Z,96.63
2023-05-09T07:27:04.238Z,96.48
2023-05-09T07:29:30.853Z,94.77
2023-05-09T07:31:57.599Z,93.58
2023-05-09T07:34:25.625Z,93.04
2023-05-09T07:36:52.320Z,92.35
2023-05-09T07:39:18.975Z,91.53
2023-05-09T07:41:46.437Z,91.02
2023-05-09T07:44:15.282Z,91.26
2023-05-09T07:46:42.265Z,90.38
2023-05-09T07:49:09.277Z,88.87
2023-05-09T07:51:36.083Z,87.49
2023-05-09T07:54:02.756Z,87.58
2023-05-09T07:56:29.557Z,85.77
2023-05-09T07:58:56.129Z,84.57
2023-05-09T08:01:22.691Z,86.15
2023-05-09T08:03:49.413Z,85.19
2023-05-09T08:06:16.156Z,84.96
2023-05-09T08:08:42.766Z,82.97
2023-05-09T08:11:09.530Z,83.10
2023-05-09T08:13:36.515Z,81.82
2023-05-09T08:16:03.170Z,80.50
2023-05-09T08:18:29.978Z,78.93
2023-05-09T08:20:56.872Z,80.32
2023-05-09T08:23:23.651Z,78.90
2023-05-09T08:25:54.345Z,79.69
2023-05-09T08:28:24.487Z,75.66
2023-05-09T08:30:52.182Z,75.59
2023-05-09T08:33:19.149Z,75.36
2023-05-09T08:35:50.251Z,73.95
2023-05-09T08:38:16.887Z,76.00
2023-05-09T08:40:43.522Z,76.71
2023-05-09T08:43:11.894Z,75.62
2023-05-09T08:45:52.050Z,74.33
2023-05-09T08:48:18.967Z,74.08
2023-05-09T08:50:45.855Z,70.03
2023-05-09T08:53:12.802Z,68.62
2023-05-09T08:55:39.755Z,70.98
2023-05-09T08:58:06.847Z,67.76
2023-05-09T09:00:34.019Z,66.95
2023-05-09T09:03:04.308Z,62.66
2023-05-09T09:05:41.301Z,61.90
2023-05-09T09:08:09.958Z,63.29
2023-05-09T09:10:42.208Z,62.52
2023-05-09T09:13:12.672Z,62.29
2023-05-09T09:15:41.618Z,60.08
2023-05-09T09:18:12.479Z,61.02
2023-05-09T09:20:48.408Z,58.16
2023-05-09T09:23:19.144Z,58.80
2023-05-09T09:25:49.333Z,56.37
2023-05-09T09:28:15.893Z,58.74
2023-05-09T09:30:48.033Z,56.01
2023-05-09T09:33:26.044Z,54.54
2023-05-09T09:35:54.610Z,54.91
2023-05-09T09:38:22.259Z,52.55
2023-05-09T09:40:51.651Z,52.32
2023-05-09T09:43:18.822Z,53.13
2023-05-09T09:45:49.530Z,53.15
2023-05-09T09:48:16.351Z,51.44
2023-05-09T09:50:43.344Z,49.72
2023-05-09T09:53:10.019Z,50.47
2023-05-09T09:55:36.646Z,54.91
2023-05-09T09:58:03.358Z,48.97
2023-05-09T10:00:30.417Z,51.34
2023-05-09T10:02:59.223Z,49.51
2023-05-09T10:05:28.752Z,49.17
2023-05-09T10:07:57.380Z,48.72
2023-05-09T10:10:26.941Z,48.34
2023-05-09T10:12:57.456Z,44.36
2023-05-09T10:15:24.719Z,45.00
2023-05-09T10:17:56.174Z,44.14
2023-05-09T10:20:24.088Z,42.85
2023-05-09T10:22:58.060Z,42.39
2023-05-09T10:25:45.036Z,42.25
2023-05-09T10:28:13.725Z,40.92
2023-05-09T10:30:50.589Z,40.27
2023-05-09T10:33:24.344Z,40.07
2023-05-09T10:35:52.308Z,41.57
2023-05-09T10:38:19.202Z,39.43
2023-05-09T10:40:48.179Z,38.90
2023-05-09T10:43:14.883Z,38.45
2023-05-09T10:45:42.823Z,37.64
2023-05-09T10:48:10.003Z,37.19
2023-05-09T10:50:38.189Z,35.50
2023-05-09T10:53:04.957Z,34.33
2023-05-09T10:55:48.104Z,31.82
2023-05-09T10:58:28.040Z,29.56
2023-05-09T11:00:57.271Z,28.31
2023-05-09T11:03:26.093Z,25.96
2023-05-09T11:05:54.886Z,25.10
2023-05-09T11:08:26.875Z,24.87
2023-05-09T11:10:55.199Z,24.66
2023-05-09T11:13:25.205Z,24.20
2023-05-09T11:16:00.887Z,23.90
2023-05-09T11:18:29.161Z,24.08
2023-05-09T11:20:56.457Z,24.17
2023-05-09T11:23:28.127Z,23.78
2023-05-09T11:26:05.284Z,23.61
2023-05-09T11:28:34.996Z,24.15
2023-05-09T11:31:22.021Z,24.73
2023-05-09T11:33:55.216Z,24.68
2023-05-09T11:36:30.217Z,26.04
2023-05-09T11:39:02.761Z,25.87
2023-05-09T11:41:30.150Z,26.80
2023-05-09T11:43:59.549Z,26.82
2023-05-09T11:46:27.396Z,27.88
2023-05-09T11:48:54.519Z,27.74
2023-05-09T11:51:21.204Z,27.74
2023-05-09T11:53:51.582Z,27.92
2023-05-09T11:56:18.319Z,27.41
2023-05-09T11:58:46.863Z,28.29
2023-05-09T12:01:13.714Z,28.26
2023-05-09T12:03:46.543Z,27.49
2023-05-09T12:06:18.392Z,26.21
2023-05-09T12:08:45.845Z,24.36
2023-05-09T12:11:12.899Z,24.02
2023-05-09T12:13:50.346Z,23.71
2023-05-09T12:16:18.278Z,23.47
2023-05-09T12:18:50.459Z,24.40
2023-05-09T12:21:21.910Z,23.95
2023-05-09T12:23:51.262Z,22.94
2023-05-09T12:26:19.885Z,23.38
2023-05-09T12:28:48.882Z,22.42
2023-05-09T12:31:17.128Z,21.85
2023-05-09T12:33:43.957Z,22.16
2023-05-09T12:36:12.611Z,21.81
2023-05-09T12:38:40.090Z,22.63
2023-05-09T12:41:29.571Z,21.65
2023-05-09T12:43:58.483Z,20.06
2023-05-09T12:46:25.830Z,20.23
2023-05-09T12:48:52.656Z,19.95
2023-05-09T12:51:21.078Z,19.93
2023-05-09T12:53:48.141Z,20.05
2023-05-09T12:56:17.259Z,19.24
2023-05-09T12:58:52.421Z,20.15
2023-05-09T13:01:29.148Z,21.52
2023-05-09T13:04:04.252Z,18.92
2023-05-09T13:06:31.357Z,19.79
2023-05-09T13:09:00.399Z,21.13
2023-05-09T13:11:27.260Z,18.97
2023-05-09T13:13:57.212Z,17.73
2023-05-09T13:16:24.410Z,16.89
2023-05-09T13:18:51.027Z,16.47
2023-05-09T13:21:17.775Z,16.58
2023-05-09T13:23:45.644Z,16.92
2023-05-09T13:26:12.512Z,17.12
2023-05-09T13:28:39.093Z,15.74
2023-05-09T13:31:05.750Z,16.04
2023-05-09T13:33:32.496Z,16.33
2023-05-09T13:35:59.112Z,16.21
2023-05-09T13:38:25.930Z,16.58
2023-05-09T13:40:52.538Z,16.97
2023-05-09T13:43:19.133Z,17.30
2023-05-09T13:45:45.929Z,18.59
2023-05-09T13:48:12.649Z,18.39
2023-05-09T13:50:39.357Z,19.02
2023-05-09T13:53:05.974Z,19.51
2023-05-09T13:55:32.618Z,20.99
2023-05-09T13:57:59.216Z,21.01
2023-05-09T14:00:26.841Z,20.17
2023-05-09T14:02:53.573Z,20.26
2023-05-09T14:05:20.197Z,19.61
2023-05-09T14:07:46.874Z,20.27
2023-05-09T14:10:13.470Z,19.45
2023-05-09T14:12:40.777Z,18.78
2023-05-09T14:15:08.693Z,18.68
2023-05-09T14:17:35.465Z,18.73
2023-05-09T14:20:02.333Z,19.71
2023-05-09T14:22:29.139Z,18.55
2023-05-09T14:24:57.586Z,17.96
2023-05-09T14:27:25.266Z,17.55
2023-05-09T14:29:52.111Z,17.29
2023-05-09T14:32:18.827Z,16.25
2023-05-09T14:34:46.087Z,16.59
2023-05-09T14:37:15.642Z,15.83
2023-05-09T14:39:43.944Z,14.45
2023-05-09T14:42:11.727Z,15.06
2023-05-09T14:44:38.839Z,14.55
2023-05-09T14:47:06.110Z,14.49
2023-05-09T14:49:33.340Z,14.36
2023-05-09T14:52:00.344Z,15.22
2023-05-09T14:54:27.251Z,14.89
2023-05-09T14:56:53.874Z,14.95
2023-05-09T14:59:20.562Z,15.41
2023-05-09T15:01:47.171Z,14.74
2023-05-09T15:04:13.775Z,13.63
2023-05-09T15:06:41.151Z,13.29
2023-05-09T15:09:08.090Z,13.65
2023-05-09T15:11:46.948Z,13.60
2023-05-09T15:14:15.033Z,13.28
2023-05-09T15:16:42.017Z,13.29
2023-05-09T15:19:08.889Z,14.11
2023-05-09T15:21:35.503Z,14.67
2023-05-09T15:24:02.595Z,14.66
2023-05-09T15:26:29.420Z,14.07
2023-05-09T15:28:56.105Z,14.51
2023-05-09T15:31:24.176Z,13.98
2023-05-09T15:33:51.108Z,14.29
2023-05-09T15:36:17.798Z,13.50
2023-05-09T15:38:48.388Z,13.40
2023-05-09T15:41:15.565Z,14.67
2023-05-09T15:43:42.236Z,13.40
2023-05-09T15:46:08.993Z,13.86
2023-05-09T15:48:35.777Z,14.37
2023-05-09T15:51:02.871Z,13.91
2023-05-09T15:53:30.181Z,14.05
2023-05-09T15:55:57.212Z,14.82
2023-05-09T15:58:23.757Z,16.03
2023-05-09T16:00:50.472Z,15.26
2023-05-09T16:03:17.583Z,15.33
2023-05-09T16:05:44.618Z,15.49
2023-05-09T16:08:11.415Z,15.74
2023-05-09T16:10:38.075Z,14.98
2023-05-09T16:13:05.943Z,14.68
2023-05-09T16:15:32.849Z,14.69
2023-05-09T16:17:59.504Z,15.61
2023-05-09T16:20:26.110Z,16.37
2023-05-09T16:22:52.854Z,17.07
2023-05-09T16:25:19.570Z,18.72
2023-05-09T16:27:46.267Z,19.93
2023-05-09T16:30:13.695Z,20.75
2023-05-09T16:32:40.455Z,20.60
2023-05-09T16:35:07.851Z,21.07
2023-05-09T16:37:35.680Z,21.60
2023-05-09T16:40:03.019Z,22.45
2023-05-09T16:42:29.804Z,23.17
2023-05-09T16:44:57.598Z,23.16
2023-05-09T16:47:24.338Z,22.89
2023-05-09T16:49:51.075Z,23.01
2023-05-09T16:52:18.579Z,23.60
2023-05-09T16:54:45.239Z,24.00
2023-05-09T16:57:12.018Z,24.24
2023-05-09T16:59:38.609Z,24.65
2023-05-09T17:02:05.391Z,25.06
2023-05-09T17:04:32.101Z,24.79
2023-05-09T17:06:58.762Z,25.17
2023-05-09T17:09:25.433Z,26.09
2023-05-09T17:11:52.093Z,25.91
2023-05-09T17:14:18.788Z,26.54
2023-05-09T17:16:45.461Z,26.76
2023-05-09T17:19:12.207Z,26.28
2023-05-09T17:21:41.751Z,26.61
2023-05-09T17:24:09.917Z,26.93
2023-05-09T17:26:36.481Z,27.10
2023-05-09T17:29:03.859Z,27.42
2023-05-09T17:31:31.559Z,27.31
2023-05-09T17:33:58.317Z,27.28
2023-05-09T17:36:25.858Z,27.35
2023-05-09T17:38:52.544Z,27.16
2023-05-09T17:41:19.177Z,27.62
2023-05-09T17:43:45.814Z,27.05
2023-05-09T17:46:14.898Z,27.81
2023-05-09T17:48:42.260Z,27.91
2023-05-09T17:51:09.285Z,27.72
2023-05-09T17:53:35.912Z,28.09
2023-05-09T17:56:02.683Z,28.21
2023-05-09T17:58:30.054Z,28.14
2023-05-09T18:00:58.707Z,28.09
2023-05-09T18:03:29.254Z,28.29
2023-05-09T18:05:56.122Z,28.48
2023-05-09T18:08:22.941Z,28.39
2023-05-09T18:10:49.998Z,28.71
2023-05-09T18:13:17.246Z,28.38
2023-05-09T18:15:44.060Z,28.48
2023-05-09T18:18:12.852Z,29.32
2023-05-09T18:20:41.554Z,29.26
2023-05-09T18:23:08.286Z,29.05
2023-05-09T18:25:35.065Z,29.60
2023-05-09T18:28:01.658Z,29.89
2023-05-09T18:30:28.186Z,30.01
2023-05-09T18:32:54.824Z,30.53
2023-05-09T18:35:21.586Z,30.28
2023-05-09T18:37:48.185Z,30.32
2023-05-09T18:40:16.229Z,30.81
2023-05-09T18:42:43.023Z,31.20
2023-05-09T18:45:10.598Z,30.86
2023-05-09T18:47:38.398Z,31.56
2023-05-09T18:50:07.211Z,32.17
2023-05-09T18:52:34.563Z,31.85
2023-05-09T18:55:01.222Z,33.39
2023-05-09T18:57:28.423Z,32.87
2023-05-09T18:59:56.186Z,33.22
2023-05-09T19:02:23.699Z,33.03
2023-05-09T19:04:51.596Z,33.47
2023-05-09T19:07:18.389Z,33.49
2023-05-09T19:09:45.053Z,33.99
2023-05-09T19:12:11.689Z,33.83
2023-05-09T19:14:38.443Z,33.92
2023-05-09T19:17:05.973Z,34.25
2023-05-09T19:19:32.786Z,34.37
2023-05-09T19:22:00.834Z,34.23
2023-05-09T19:24:27.800Z,34.76
2023-05-09T19:26:54.362Z,35.65
2023-05-09T19:29:20.912Z,34.98
2023-05-09T19:31:47.480Z,35.46
2023-05-09T19:34:14.180Z,35.48
2023-05-09T19:36:40.907Z,35.24
2023-05-09T19:39:09.094Z,35.21
2023-05-09T19:41:35.736Z,35.91
2023-05-09T19:44:02.432Z,35.48
2023-05-09T19:46:29.088Z,36.49
2023-05-09T19:48:55.680Z,36.37
2023-05-09T19:51:22.308Z,36.16
2023-05-09T19:53:48.969Z,36.50
2023-05-09T19:56:15.738Z,36.81
2023-05-09T19:58:42.503Z,36.84
2023-05-09T20:01:09.626Z,36.75
2023-05-09T20:03:37.219Z,36.83
2023-05-09T20:06:04.143Z,37.05
2023-05-09T20:08:31.321Z,37.49
2023-05-09T20:10:59.433Z,37.38
2023-05-09T20:13:27.147Z,37.06
2023-05-09T20:15:53.914Z,37.36
2023-05-09T20:18:20.641Z,37.87
2023-05-09T20:20:47.346Z,37.59
2023-05-09T20:23:14.929Z,37.90
2023-05-09T20:25:41.550Z,38.68
2023-05-09T20:28:08.093Z,38.60
2023-05-09T20:30:34.654Z,39.17
2023-05-09T20:33:01.647Z,38.99
2023-05-09T20:35:28.204Z,39.47
2023-05-09T20:37:54.832Z,40.31
2023-05-09T20:40:21.376Z,40.50
2023-05-09T20:42:47.964Z,41.04
2023-05-09T20:45:14.525Z,41.26
2023-05-09T20:47:41.192Z,41.74
2023-05-09T20:50:08.409Z,41.69
2023-05-09T20:52:35.063Z,42.64
2023-05-09T20:55:02.108Z,42.78
2023-05-09T20:57:29.015Z,43.59
2023-05-09T20:59:55.836Z,44.19
2023-05-09T21:02:22.564Z,44.19
2023-05-09T21:04:49.228Z,46.04
2023-05-09T21:07:19.259Z,46.07
2023-05-09T21:09:49.891Z,46.02
2023-05-09T21:12:16.975Z,45.92
2023-05-09T21:14:44.862Z,46.62
2023-05-09T21:17:12.036Z,47.14
2023-05-09T21:19:38.876Z,46.86
2023-05-09T21:22:05.654Z,47.78
2023-05-09T21:24:32.301Z,49.37
2023-05-09T21:26:59.028Z,49.75
2023-05-09T21:29:25.599Z,50.35
2023-05-09T21:31:52.223Z,51.13
2023-05-09T21:34:18.916Z,51.62
2023-05-09T21:36:45.516Z,53.41
2023-05-09T21:39:12.210Z,53.26
2023-05-09T21:41:40.475Z,52.61
2023-05-09T21:44:07.942Z,52.37
2023-05-09T21:46:35.567Z,53.88
2023-05-09T21:49:02.330Z,53.87
2023-05-09T21:51:29.513Z,54.13
2023-05-09T21:53:56.071Z,54.41
2023-05-09T21:56:23.288Z,55.11
2023-05-09T21:58:50.255Z,55.97
2023-05-09T22:01:19.269Z,55.92
2023-05-09T22:03:46.272Z,55.60
2023-05-09T22:06:13.751Z,57.60
2023-05-09T22:08:40.681Z,57.61
2023-05-09T22:11:07.852Z,58.03
2023-05-09T22:13:36.025Z,58.27
2023-05-09T22:16:04.114Z,59.54
2023-05-09T22:18:31.503Z,60.73
2023-05-09T22:20:59.214Z,62.10
2023-05-09T22:23:25.961Z,63.56
2023-05-09T22:25:52.962Z,65.01
2023-05-09T22:28:19.665Z,65.30
2023-05-09T22:30:46.311Z,65.48
2023-05-09T22:33:13.046Z,66.05
2023-05-09T22:35:39.746Z,67.36
2023-05-09T22:38:06.668Z,68.51
2023-05-09T22:40:34.091Z,68.51
2023-05-09T22:43:00.704Z,69.28
2023-05-09T22:45:27.513Z,69.67
2023-05-09T22:47:54.069Z,71.21
2023-05-09T22:50:20.879Z,72.35
2023-05-09T22:52:47.570Z,72.66
2023-05-09T22:55:14.261Z,73.42
2023-05-09T22:57:41.620Z,74.09
2023-05-09T23:00:08.778Z,74.47
2023-05-09T23:02:35.539Z,75.16
2023-05-09T23:05:02.244Z,74.85
2023-05-09T23:07:28.815Z,75.99
2023-05-09T23:09:55.587Z,76.86
2023-05-09T23:12:22.276Z,77.22
2023-05-09T23:14:48.842Z,77.75
2023-05-09T23:17:15.503Z,78.21
2023-05-09T23:19:42.146Z,78.66
2023-05-09T23:22:08.852Z,79.60
2023-05-09T23:24:35.544Z,80.17
2023-05-09T23:27:02.911Z,80.37
2023-05-09T23:29:29.579Z,81.68
2023-05-09T23:31:56.618Z,81.63
2023-05-09T23:34:23.250Z,81.81
2023-05-09T23:36:49.775Z,82.53
2023-05-09T23:39:16.361Z,83.19
2023-05-09T23:41:43.290Z,82.48
2023-05-09T23:44:09.901Z,83.42
2023-05-09T23:46:36.604Z,84.14
2023-05-09T23:49:04.554Z,84.21
2023-05-09T23:51:31.133Z,84.21
2023-05-09T23:53:58.171Z,84.84
2023-05-09T23:56:25.504Z,85.59
2023-05-09T23:58:55.041Z,85.33
